< < Back
Terminal Aerodrome Forecast


Current Version              Previous Versions:   1  2  3  4  5  6  7  8  9  

Terminal Aerodrome Forecast

823
FTUS42 KGSP 232335
TAFGSP
TAF
KGSP 232335Z 2400/2424 09007KT P6SM BKN060
     FM240300 12003KT P6SM SCT050
     FM240900 00000KT P6SM FEW060
     FM241900 22006KT P6SM SCT050=

Latest METAR

982
SAUS70 KWBC 241900 RRJ
MTRGSP
METAR KGSP 241853Z VRB04KT 10SM CLR 26/10 A3013 RMK AO2 SLP192
T02610100


USA.gov is the U.S. government's official web portal to all federal, state and local government web resources and services.